createdAt,value
2018-04-02T00:01:52.903Z,97730.37
2018-04-02T00:04:20.465Z,97733.91
2018-04-02T00:06:48.134Z,97734.12
2018-04-02T00:09:15.823Z,97731.84
2018-04-02T00:11:43.504Z,97735.52
2018-04-02T00:14:11.145Z,97743.93
2018-04-02T00:16:38.707Z,97743.09
2018-04-02T00:19:06.475Z,97749.70
2018-04-02T00:21:35.174Z,97752.39
2018-04-02T00:24:02.812Z,97759.45
2018-04-02T00:26:30.454Z,97752.75
2018-04-02T00:28:58.579Z,97762.37
2018-04-02T00:31:26.216Z,97774.49
2018-04-02T00:33:54.022Z,97765.31
2018-04-02T00:36:21.724Z,97773.80
2018-04-02T00:38:49.470Z,97774.36
2018-04-02T00:41:17.126Z,97778.73
2018-04-02T00:43:44.750Z,97776.51
2018-04-02T00:46:12.385Z,97784.50
2018-04-02T00:48:39.973Z,97789.64
2018-04-02T00:51:07.597Z,97793.14
2018-04-02T00:53:35.170Z,97796.25
2018-04-02T00:56:02.806Z,97805.07
2018-04-02T00:58:30.629Z,97799.23
2018-04-02T01:00:58.270Z,97803.85
2018-04-02T01:03:26.714Z,97801.67
2018-04-02T01:05:54.518Z,97802.30
2018-04-02T01:08:22.103Z,97809.94
2018-04-02T01:10:49.691Z,97798.22
2018-04-02T01:13:17.414Z,97812.33
2018-04-02T01:15:44.989Z,97821.41
2018-04-02T01:18:12.561Z,97805.86
2018-04-02T01:20:40.259Z,97807.66
2018-04-02T01:23:08.585Z,97812.06
2018-04-02T01:25:36.278Z,97811.67
2018-04-02T01:28:04.014Z,97817.67
2018-04-02T01:30:31.639Z,97812.00
2018-04-02T01:32:59.205Z,97811.08
2018-04-02T01:35:26.842Z,97820.52
2018-04-02T01:37:54.462Z,97819.89
2018-04-02T01:40:22.018Z,97827.87
2018-04-02T01:42:49.750Z,97831.95
2018-04-02T01:45:17.328Z,97830.89
2018-04-02T01:47:44.960Z,97831.73
2018-04-02T01:50:12.872Z,97831.52
2018-04-02T01:52:40.450Z,97841.31
2018-04-02T01:55:08.083Z,97842.74
2018-04-02T01:57:35.964Z,97840.42
2018-04-02T02:00:03.600Z,97852.67
2018-04-02T02:02:31.263Z,97853.66
2018-04-02T02:04:58.968Z,97853.70
2018-04-02T02:07:26.537Z,97862.19
2018-04-02T02:09:54.178Z,97863.61
2018-04-02T02:12:22.042Z,97861.12
2018-04-02T02:14:49.674Z,97866.06
2018-04-02T02:17:17.244Z,97874.41
2018-04-02T02:19:45.039Z,97873.71
2018-04-02T02:22:12.783Z,97873.12
2018-04-02T02:24:40.413Z,97886.00
2018-04-02T02:27:08.216Z,97888.36
2018-04-02T02:29:35.804Z,97878.82
2018-04-02T02:32:03.419Z,97873.44
2018-04-02T02:34:31.040Z,97884.84
2018-04-02T02:36:58.615Z,97889.52
2018-04-02T02:39:26.248Z,97887.42
2018-04-02T02:41:54.219Z,97885.03
2018-04-02T02:44:21.865Z,97891.44
2018-04-02T02:46:50.301Z,97898.75
2018-04-02T02:49:17.998Z,97897.91
2018-04-02T02:51:45.635Z,97899.50
2018-04-02T02:54:13.227Z,97907.64
2018-04-02T02:56:40.865Z,97902.12
2018-04-02T02:59:08.441Z,97909.23
2018-04-02T03:01:36.018Z,97911.91
2018-04-02T03:04:03.646Z,97919.55
2018-04-02T03:06:31.216Z,97926.09
2018-04-02T03:08:58.837Z,97921.65
2018-04-02T03:11:26.565Z,97922.59
2018-04-02T03:13:54.239Z,97916.80
2018-04-02T03:16:21.810Z,97927.05
2018-04-02T03:18:49.485Z,97932.17
2018-04-02T03:21:17.678Z,97947.20
2018-04-02T03:23:45.318Z,97946.03
2018-04-02T03:26:13.203Z,97953.16
2018-04-02T03:28:40.770Z,97953.66
2018-04-02T03:31:08.374Z,97967.99
2018-04-02T03:33:36.865Z,97974.11
2018-04-02T03:36:04.487Z,97976.70
2018-04-02T03:38:32.059Z,97976.36
2018-04-02T03:40:59.749Z,97978.38
2018-04-02T03:43:27.387Z,97990.62
2018-04-02T03:45:54.974Z,97997.90
2018-04-02T03:48:22.889Z,97996.90
2018-04-02T03:50:50.524Z,98000.92
2018-04-02T03:53:18.123Z,98001.86
2018-04-02T03:55:45.725Z,97998.13
2018-04-02T03:58:13.390Z,98030.91
2018-04-02T04:00:41.040Z,98027.89
2018-04-02T04:03:09.014Z,98029.42
2018-04-02T04:05:36.648Z,98025.89
2018-04-02T04:08:04.293Z,98034.28
2018-04-02T04:10:32.013Z,98041.64
2018-04-02T04:12:59.642Z,98046.67
2018-04-02T04:15:27.262Z,98048.27
2018-04-02T04:17:54.970Z,98053.56
2018-04-02T04:20:22.531Z,98064.70
2018-04-02T04:22:50.114Z,98067.19
2018-04-02T04:25:17.849Z,98067.88
2018-04-02T04:27:45.471Z,98067.38
2018-04-02T04:30:13.099Z,98083.77
2018-04-02T04:32:40.722Z,98092.85
2018-04-02T04:35:08.312Z,98092.41
2018-04-02T04:37:35.887Z,98084.15
2018-04-02T04:40:03.718Z,98081.56
2018-04-02T04:42:31.277Z,98089.86
2018-04-02T04:44:58.919Z,98085.97
2018-04-02T04:47:26.986Z,98092.50
2018-04-02T04:49:54.625Z,98098.27
2018-04-02T04:52:22.184Z,98099.80
2018-04-02T04:54:49.817Z,98097.67
2018-04-02T04:57:17.392Z,98096.76
2018-04-02T04:59:45.022Z,98106.03
2018-04-02T05:02:12.678Z,98116.33
2018-04-02T05:04:40.264Z,98117.73
2018-04-02T05:07:07.892Z,98119.27
2018-04-02T05:09:35.630Z,98132.34
2018-04-02T05:12:03.286Z,98128.46
2018-04-02T05:14:30.858Z,98126.46
2018-04-02T05:16:58.697Z,98120.30
2018-04-02T05:19:26.276Z,98130.77
2018-04-02T05:21:53.850Z,98134.05
2018-04-02T05:24:21.571Z,98140.19
2018-04-02T05:26:49.290Z,98146.13
2018-04-02T05:29:16.876Z,98147.58
2018-04-02T05:31:44.529Z,98138.42
2018-04-02T05:34:12.151Z,98147.16
2018-04-02T05:36:39.732Z,98146.49
2018-04-02T05:39:07.357Z,98144.75
2018-04-02T05:41:34.932Z,98153.97
2018-04-02T05:44:02.573Z,98146.05
2018-04-02T05:46:30.212Z,98144.27
2018-04-02T05:48:57.790Z,98146.66
2018-04-02T05:51:25.362Z,98154.92
2018-04-02T05:53:52.988Z,98148.37
2018-04-02T05:56:20.577Z,98155.93
2018-04-02T05:58:48.214Z,98161.08
2018-04-02T06:01:15.850Z,98161.43
2018-04-02T06:03:44.260Z,98172.33
2018-04-02T06:06:12.242Z,98168.88
2018-04-02T06:08:39.987Z,98168.48
2018-04-02T06:11:07.618Z,98179.05
2018-04-02T06:13:35.193Z,98185.48
2018-04-02T06:16:02.914Z,98185.88
2018-04-02T06:18:30.490Z,98182.30
2018-04-02T06:20:58.071Z,98179.99
2018-04-02T06:23:26.720Z,98181.56
2018-04-02T06:25:54.306Z,98186.77
2018-04-02T06:28:22.097Z,98190.72
2018-04-02T06:30:49.810Z,98197.23
2018-04-02T06:33:17.426Z,98201.30
2018-04-02T06:35:45.086Z,98204.55
2018-04-02T06:38:12.714Z,98219.20
2018-04-02T06:40:40.448Z,98210.27
2018-04-02T06:43:08.119Z,98213.19
2018-04-02T06:45:35.730Z,98211.94
2018-04-02T06:48:03.770Z,98218.77
2018-04-02T06:50:31.343Z,98223.36
2018-04-02T06:52:59.049Z,98231.88
2018-04-02T06:55:26.630Z,98229.93
2018-04-02T06:57:54.202Z,98236.87
2018-04-02T07:00:21.915Z,98234.83
2018-04-02T07:02:49.555Z,98233.81
2018-04-02T07:05:17.146Z,98242.37
2018-04-02T07:07:44.979Z,98232.61
2018-04-02T07:10:12.561Z,98240.23
2018-04-02T07:12:40.137Z,98240.11
2018-04-02T07:15:07.754Z,98246.61
2018-04-02T07:17:35.317Z,98252.77
2018-04-02T07:20:02.888Z,98259.71
2018-04-02T07:22:30.649Z,98259.41
2018-04-02T07:24:58.233Z,98264.72
2018-04-02T07:27:25.864Z,98267.45
2018-04-02T07:29:53.767Z,98278.10
2018-04-02T07:32:21.400Z,98277.44
2018-04-02T07:34:49.035Z,98273.58
2018-04-02T07:37:17.145Z,98278.70
2018-04-02T07:39:45.430Z,98284.31
2018-04-02T07:42:13.015Z,98283.42
2018-04-02T07:44:40.711Z,98299.13
2018-04-02T07:47:08.300Z,98291.76
2018-04-02T07:49:35.909Z,98300.56
2018-04-02T07:52:03.605Z,98301.30
2018-04-02T07:54:31.193Z,98307.97
2018-04-02T07:56:58.826Z,98316.07
2018-04-02T07:59:26.534Z,98321.86
2018-04-02T08:01:54.126Z,98314.48
2018-04-02T08:04:21.728Z,98321.41
2018-04-02T08:06:49.524Z,98310.74
2018-04-02T08:09:17.193Z,98322.20
2018-04-02T08:11:44.851Z,98327.95
2018-04-02T08:14:12.693Z,98329.81
2018-04-02T08:16:40.272Z,98329.55
2018-04-02T08:19:07.859Z,98321.75
2018-04-02T08:21:35.502Z,98330.33
2018-04-02T08:24:03.504Z,98327.66
2018-04-02T08:26:31.102Z,98327.59
2018-04-02T08:28:58.769Z,98324.33
2018-04-02T08:31:26.443Z,98330.35
2018-04-02T08:33:54.018Z,98332.53
2018-04-02T08:36:21.730Z,98344.49
2018-04-02T08:38:49.353Z,98342.80
2018-04-02T08:41:16.928Z,98344.66
2018-04-02T08:43:44.541Z,98337.24
2018-04-02T08:46:12.111Z,98347.85
2018-04-02T08:48:39.692Z,98340.57
2018-04-02T08:51:07.701Z,98351.94
2018-04-02T08:53:35.099Z,98351.03
2018-04-02T08:56:02.666Z,98353.03
2018-04-02T08:58:30.291Z,98354.98
2018-04-02T09:00:57.862Z,98355.25
2018-04-02T09:03:25.453Z,98349.28
2018-04-02T09:05:53.224Z,98354.03
2018-04-02T09:08:20.811Z,98361.56
2018-04-02T09:10:48.381Z,98361.00
2018-04-02T09:13:16.191Z,98362.56
2018-04-02T09:15:43.754Z,98380.13
2018-04-02T09:18:11.432Z,98385.45
2018-04-02T09:20:39.122Z,98377.25
2018-04-02T09:23:06.714Z,98367.42
2018-04-02T09:25:34.308Z,98357.52
2018-04-02T09:28:02.268Z,98367.23
2018-04-02T09:30:29.849Z,98359.31
2018-04-02T09:32:57.745Z,98362.94
2018-04-02T09:35:25.372Z,98359.47
2018-04-02T09:37:52.940Z,98349.16
2018-04-02T09:40:21.702Z,98354.98
2018-04-02T09:42:49.320Z,98360.83
2018-04-02T09:45:16.917Z,98348.20
2018-04-02T09:47:44.554Z,98339.81
2018-04-02T09:50:12.263Z,98353.20
2018-04-02T09:52:39.863Z,98351.08
2018-04-02T09:55:08.106Z,98361.89
2018-04-02T09:57:35.744Z,98369.30
2018-04-02T10:00:03.370Z,98348.08
2018-04-02T10:02:37.089Z,98349.09
2018-04-02T10:05:06.619Z,98344.34
2018-04-02T10:07:34.147Z,98342.09
2018-04-02T10:10:02.139Z,98338.64
2018-04-02T10:12:30.055Z,98334.01
2018-04-02T10:14:57.670Z,98326.41
2018-04-02T10:17:25.463Z,98341.28
2018-04-02T10:19:53.082Z,98340.37
2018-04-02T10:22:20.647Z,98338.25
2018-04-02T10:24:48.588Z,98341.03
2018-04-02T10:27:16.161Z,98342.31
2018-04-02T10:29:43.818Z,98347.00
2018-04-02T10:32:11.539Z,98344.14
2018-04-02T10:34:39.198Z,98350.39
2018-04-02T10:37:06.776Z,98351.27
2018-04-02T10:39:34.927Z,98340.88
2018-04-02T10:42:02.573Z,98340.84
2018-04-02T10:44:30.256Z,98338.22
2018-04-02T10:46:57.884Z,98344.72
2018-04-02T10:49:25.556Z,98349.37
2018-04-02T10:51:53.138Z,98352.28
2018-04-02T10:54:20.823Z,98352.64
2018-04-02T10:56:48.398Z,98350.01
2018-04-02T10:59:16.106Z,98356.74
2018-04-02T11:01:43.746Z,98357.11
2018-04-02T11:04:11.375Z,98365.27
2018-04-02T11:06:39.028Z,98358.73
2018-04-02T11:09:06.779Z,98350.46
2018-04-02T11:11:34.352Z,98355.55
2018-04-02T11:14:02.015Z,98349.81
2018-04-02T11:16:29.858Z,98354.28
2018-04-02T11:18:57.429Z,98360.70
2018-04-02T11:21:25.009Z,98356.26
2018-04-02T11:23:52.720Z,98354.53
2018-04-02T11:26:20.327Z,98360.80
2018-04-02T11:28:47.912Z,98359.34
2018-04-02T11:31:15.590Z,98360.54
2018-04-02T11:33:43.169Z,98349.11
2018-04-02T11:36:10.933Z,98346.64
2018-04-02T11:38:38.593Z,98342.48
2018-04-02T11:41:06.308Z,98338.70
2018-04-02T11:43:33.938Z,98332.43
2018-04-02T11:46:01.851Z,98336.83
2018-04-02T11:48:29.452Z,98341.81
2018-04-02T11:50:57.066Z,98341.33
2018-04-02T11:53:24.718Z,98343.44
2018-04-02T11:55:52.291Z,98349.52
2018-04-02T11:58:19.946Z,98349.20
2018-04-02T12:00:47.765Z,98349.45
2018-04-02T12:03:15.311Z,98344.17
2018-04-02T12:05:42.897Z,98350.13
2018-04-02T12:08:10.561Z,98343.45
2018-04-02T12:10:38.149Z,98341.78
2018-04-02T12:13:05.811Z,98340.36
2018-04-02T12:15:33.523Z,98345.38
2018-04-02T12:18:01.163Z,98353.78
2018-04-02T12:20:28.826Z,98347.55
2018-04-02T12:22:56.446Z,98346.33
2018-04-02T12:25:24.021Z,98348.67
2018-04-02T12:27:51.601Z,98342.42
2018-04-02T12:30:19.259Z,98344.48
2018-04-02T12:32:46.852Z,98343.66
2018-04-02T12:35:14.429Z,98345.47
2018-04-02T12:37:42.570Z,98344.46
2018-04-02T12:40:10.142Z,98348.61
2018-04-02T12:42:37.733Z,98349.50
2018-04-02T12:45:05.565Z,98349.25
2018-04-02T12:47:33.202Z,98354.39
2018-04-02T12:50:01.453Z,98348.05
2018-04-02T12:52:29.165Z,98347.10
2018-04-02T12:54:56.806Z,98343.87
2018-04-02T12:57:24.520Z,98343.38
2018-04-02T12:59:52.151Z,98343.82
2018-04-02T13:02:19.712Z,98351.41
2018-04-02T13:04:47.293Z,98341.94
2018-04-02T13:07:14.927Z,98347.63
2018-04-02T13:09:42.498Z,98346.47
2018-04-02T13:12:10.143Z,98342.69
2018-04-02T13:14:37.770Z,98353.16
2018-04-02T13:17:05.348Z,98349.25
2018-04-02T13:19:33.039Z,98351.38
2018-04-02T13:22:00.674Z,98349.95
2018-04-02T13:24:28.277Z,98351.55
2018-04-02T13:26:55.932Z,98345.01
2018-04-02T13:29:23.740Z,98347.25
2018-04-02T13:31:51.355Z,98339.80
2018-04-02T13:34:18.987Z,98344.42
2018-04-02T13:36:46.603Z,98342.89
2018-04-02T13:39:14.546Z,98342.97
2018-04-02T13:41:42.142Z,98345.75
2018-04-02T13:44:10.442Z,98347.14
2018-04-02T13:46:38.083Z,98355.23
2018-04-02T13:49:05.728Z,98349.14
2018-04-02T13:51:33.645Z,98352.97
2018-04-02T13:54:01.216Z,98354.18
2018-04-02T13:56:28.789Z,98353.71
2018-04-02T13:58:56.409Z,98353.08
2018-04-02T14:01:23.994Z,98359.44
2018-04-02T14:03:51.567Z,98367.25
2018-04-02T14:06:19.381Z,98363.47
2018-04-02T14:08:46.962Z,98366.16
2018-04-02T14:11:14.535Z,98377.37
2018-04-02T14:13:42.150Z,98380.52
2018-04-02T14:16:09.763Z,98385.19
2018-04-02T14:18:37.394Z,98383.03
2018-04-02T14:21:05.247Z,98382.59
2018-04-02T14:23:32.875Z,98374.53
2018-04-02T14:26:00.450Z,98383.25
2018-04-02T14:28:28.092Z,98385.37
2018-04-02T14:30:55.718Z,98385.66
2018-04-02T14:33:24.015Z,98395.36
2018-04-02T14:35:52.295Z,98395.23
2018-04-02T14:38:19.880Z,98395.30
2018-04-02T14:40:47.570Z,98398.86
2018-04-02T14:43:15.471Z,98403.33
2018-04-02T14:45:43.099Z,98398.43
2018-04-02T14:48:10.735Z,98396.90
2018-04-02T14:50:38.354Z,98402.34
2018-04-02T14:53:05.983Z,98396.93
2018-04-02T14:55:34.072Z,98391.06
2018-04-02T14:58:01.752Z,98398.50
2018-04-02T15:00:29.387Z,98394.38
2018-04-02T15:02:57.041Z,98397.94
2018-04-02T15:05:24.704Z,98403.80
2018-04-02T15:07:52.280Z,98400.41
2018-04-02T15:10:19.862Z,98414.58
2018-04-02T15:12:47.481Z,98411.52
2018-04-02T15:15:15.046Z,98420.12
2018-04-02T15:17:42.610Z,98423.64
2018-04-02T15:20:10.359Z,98417.69
2018-04-02T15:22:37.925Z,98420.95
2018-04-02T15:25:05.491Z,98422.02
2018-04-02T15:27:33.132Z,98420.91
2018-04-02T15:30:00.764Z,98429.96
2018-04-02T15:32:28.394Z,98429.23
2018-04-02T15:34:56.105Z,98427.66
2018-04-02T15:37:23.680Z,98431.42
2018-04-02T15:39:51.258Z,98439.08
2018-04-02T15:42:19.117Z,98434.56
2018-04-02T15:44:47.665Z,98434.72
2018-04-02T15:47:15.295Z,98438.01
2018-04-02T15:49:42.942Z,98443.34
2018-04-02T15:52:10.529Z,98454.58
2018-04-02T15:54:38.098Z,98461.69
2018-04-02T15:57:05.710Z,98462.34
2018-04-02T15:59:33.346Z,98460.25
2018-04-02T16:02:01.477Z,98467.27
2018-04-02T16:04:29.185Z,98470.28
2018-04-02T16:06:56.815Z,98468.51
2018-04-02T16:09:24.401Z,98469.03
2018-04-02T16:11:52.153Z,98478.88
2018-04-02T16:14:19.778Z,98469.47
2018-04-02T16:16:47.353Z,98469.47
2018-04-02T16:19:14.975Z,98477.64
2018-04-02T16:21:42.562Z,98476.80
2018-04-02T16:24:10.199Z,98478.58
2018-04-02T16:26:37.853Z,98485.99
2018-04-02T16:29:05.473Z,98487.03
2018-04-02T16:31:33.097Z,98487.34
2018-04-02T16:34:00.799Z,98489.44
2018-04-02T16:36:28.445Z,98490.32
2018-04-02T16:38:56.078Z,98497.44
2018-04-02T16:41:23.713Z,98496.27
2018-04-02T16:43:51.418Z,98499.09
2018-04-02T16:46:19.106Z,98511.64
2018-04-02T16:48:46.836Z,98511.09
2018-04-02T16:51:14.475Z,98518.58
2018-04-02T16:53:42.135Z,98521.19
2018-04-02T16:56:09.925Z,98526.16
2018-04-02T16:58:37.577Z,98528.95
2018-04-02T17:01:05.259Z,98534.31
2018-04-02T17:03:32.938Z,98532.92
2018-04-02T17:06:00.550Z,98542.35
2018-04-02T17:08:28.132Z,98546.39
2018-04-02T17:10:55.862Z,98546.42
2018-04-02T17:13:23.444Z,98548.98
2018-04-02T17:15:51.125Z,98552.95
2018-04-02T17:18:18.754Z,98567.52
2018-04-02T17:20:46.434Z,98563.82
2018-04-02T17:23:14.116Z,98566.84
2018-04-02T17:25:41.761Z,98571.08
2018-04-02T17:28:09.404Z,98574.70
2018-04-02T17:30:36.950Z,98586.04
2018-04-02T17:33:04.729Z,98595.30
2018-04-02T17:35:32.298Z,98601.72
2018-04-02T17:37:59.983Z,98607.09
2018-04-02T17:40:27.772Z,98613.09
2018-04-02T17:42:55.312Z,98624.88
2018-04-02T17:45:23.301Z,98629.67
2018-04-02T17:47:50.921Z,98636.30
2018-04-02T17:50:18.566Z,98638.07
2018-04-02T17:52:46.239Z,98634.31
2018-04-02T17:55:13.882Z,98642.69
2018-04-02T17:57:41.498Z,98647.66
2018-04-02T18:00:09.232Z,98655.94
2018-04-02T18:02:37.229Z,98667.37
2018-04-02T18:05:04.962Z,98665.00
2018-04-02T18:07:32.567Z,98674.00
2018-04-02T18:10:00.324Z,98676.88
2018-04-02T18:12:27.922Z,98679.86
2018-04-02T18:14:55.563Z,98681.09
2018-04-02T18:17:23.363Z,98687.49
2018-04-02T18:19:50.977Z,98697.13
2018-04-02T18:22:18.584Z,98705.96
2018-04-02T18:24:46.226Z,98707.73
2018-04-02T18:27:13.895Z,98710.11
2018-04-02T18:29:41.529Z,98714.59
2018-04-02T18:32:09.692Z,98720.87
2018-04-02T18:34:37.319Z,98724.94
2018-04-02T18:37:04.919Z,98725.63
2018-04-02T18:39:32.634Z,98732.77
2018-04-02T18:42:00.221Z,98734.69
2018-04-02T18:44:28.566Z,98734.36
2018-04-02T18:46:56.829Z,98739.18
2018-04-02T18:49:24.410Z,98747.55
2018-04-02T18:51:52.005Z,98752.05
2018-04-02T18:54:19.682Z,98756.10
2018-04-02T18:56:47.259Z,98757.23
2018-04-02T18:59:15.572Z,98763.20
2018-04-02T19:01:43.225Z,98765.53
2018-04-02T19:04:10.797Z,98772.67
2018-04-02T19:06:38.430Z,98777.20
2018-04-02T19:09:06.874Z,98782.06
2018-04-02T19:11:34.518Z,98780.50
2018-04-02T19:14:02.113Z,98781.30
2018-04-02T19:16:30.014Z,98785.22
2018-04-02T19:18:57.597Z,98788.55
2018-04-02T19:21:26.204Z,98792.53
2018-04-02T19:23:53.999Z,98788.13
2018-04-02T19:26:25.053Z,98791.21
2018-04-02T19:28:52.697Z,98798.23
2018-04-02T19:31:20.396Z,98800.72
2018-04-02T19:33:47.981Z,98805.63
2018-04-02T19:36:15.647Z,98808.08
2018-04-02T19:38:43.518Z,98809.97
2018-04-02T19:41:11.161Z,98809.12
2018-04-02T19:43:38.789Z,98806.70
2018-04-02T19:46:06.482Z,98800.28
2018-04-02T19:48:34.266Z,98809.46
2018-04-02T19:51:01.920Z,98815.04
2018-04-02T19:53:29.809Z,98812.96
2018-04-02T19:55:57.405Z,98809.02
2018-04-02T19:58:25.060Z,98821.19
2018-04-02T20:00:52.791Z,98820.01
2018-04-02T20:03:20.367Z,98830.83
2018-04-02T20:05:48.042Z,98831.70
2018-04-02T20:08:15.726Z,98830.05
2018-04-02T20:10:43.397Z,98842.94
2018-04-02T20:13:10.995Z,98840.61
2018-04-02T20:15:38.767Z,98842.04
2018-04-02T20:18:06.343Z,98848.66
2018-04-02T20:20:33.929Z,98860.23
2018-04-02T20:23:01.728Z,98850.72
2018-04-02T20:25:29.340Z,98860.97
2018-04-02T20:27:56.914Z,98862.30
2018-04-02T20:30:24.722Z,98867.28
2018-04-02T20:32:52.382Z,98873.28
2018-04-02T20:35:19.965Z,98876.60
2018-04-02T20:37:47.590Z,98881.33
2018-04-02T20:40:15.238Z,98879.55
2018-04-02T20:42:42.810Z,98887.41
2018-04-02T20:45:10.437Z,98890.63
2018-04-02T20:47:38.008Z,98889.89
2018-04-02T20:50:05.650Z,98892.97
2018-04-02T20:52:33.298Z,98889.02
2018-04-02T20:55:00.876Z,98888.52
2018-04-02T20:57:28.458Z,98884.89
2018-04-02T20:59:56.084Z,98893.02
2018-04-02T21:02:23.646Z,98893.27
2018-04-02T21:04:51.214Z,98896.61
2018-04-02T21:07:18.850Z,98904.37
2018-04-02T21:09:46.483Z,98907.22
2018-04-02T21:12:14.912Z,98914.42
2018-04-02T21:14:42.593Z,98910.72
2018-04-02T21:17:10.264Z,98915.39
2018-04-02T21:19:38.790Z,98914.52
2018-04-02T21:22:06.422Z,98915.81
2018-04-02T21:24:34.002Z,98918.09
2018-04-02T21:27:01.638Z,98928.50
2018-04-02T21:29:29.314Z,98930.55
2018-04-02T21:31:57.525Z,98933.84
2018-04-02T21:34:25.093Z,98943.47
2018-04-02T21:36:52.782Z,98946.60
2018-04-02T21:39:20.374Z,98942.98
2018-04-02T21:41:47.963Z,98943.91
2018-04-02T21:44:15.747Z,98939.01
2018-04-02T21:46:43.321Z,98938.73
2018-04-02T21:49:10.887Z,98946.08
2018-04-02T21:51:38.777Z,98943.17
2018-04-02T21:54:06.378Z,98940.47
2018-04-02T21:56:34.073Z,98942.58
2018-04-02T21:59:01.702Z,98946.55
2018-04-02T22:01:29.267Z,98953.22
2018-04-02T22:03:56.886Z,98956.41
2018-04-02T22:06:36.136Z,98960.69
2018-04-02T22:09:03.832Z,98958.75
2018-04-02T22:11:31.487Z,98964.36
2018-04-02T22:13:59.103Z,98961.58
2018-04-02T22:16:26.681Z,98968.50
2018-04-02T22:18:54.327Z,98966.02
2018-04-02T22:21:22.022Z,98962.30
2018-04-02T22:23:49.609Z,98974.14
2018-04-02T22:26:17.242Z,98974.73
2018-04-02T22:28:44.958Z,98970.20
2018-04-02T22:31:12.537Z,98979.63
2018-04-02T22:33:40.137Z,98982.31
2018-04-02T22:36:07.779Z,98991.33
2018-04-02T22:38:35.343Z,98994.64
2018-04-02T22:41:02.919Z,98996.06
2018-04-02T22:43:30.926Z,99001.16
2018-04-02T22:45:58.497Z,99007.59
2018-04-02T22:48:26.109Z,99016.38
2018-04-02T22:50:53.751Z,99019.20
2018-04-02T22:53:21.605Z,99022.12
2018-04-02T22:55:49.236Z,99024.44
2018-04-02T22:58:16.973Z,99027.52
2018-04-02T23:00:44.610Z,99024.80
2018-04-02T23:03:12.266Z,99023.67
2018-04-02T23:05:39.987Z,99024.49
2018-04-02T23:08:07.589Z,99013.38
2018-04-02T23:10:35.202Z,99016.84
2018-04-02T23:13:02.814Z,99017.44
2018-04-02T23:15:30.383Z,99014.78
2018-04-02T23:17:58.008Z,99009.54
2018-04-02T23:20:25.650Z,99012.52
2018-04-02T23:22:54.009Z,99009.92
2018-04-02T23:25:21.603Z,99015.01
2018-04-02T23:27:49.392Z,99007.85
2018-04-02T23:30:16.980Z,99008.16
2018-04-02T23:32:44.602Z,99010.90
2018-04-02T23:35:12.335Z,99018.60
2018-04-02T23:37:39.931Z,99007.38
2018-04-02T23:40:07.510Z,99008.27
2018-04-02T23:42:35.753Z,99015.22
2018-04-02T23:45:03.890Z,99017.25
2018-04-02T23:47:31.656Z,99023.10
2018-04-02T23:49:59.305Z,99023.27
2018-04-02T23:52:26.919Z,99025.22
2018-04-02T23:54:54.877Z,99023.20
2018-04-02T23:57:22.589Z,99024.44
2018-04-02T23:59:50.169Z,99032.49
